Time;durP1;ratioP1;P1;durP2;ratioP2;P2;SDS_P1;SDS_P2;PMS_P1;PMS_P2;Temp;Humidity;BMP_temperature;BMP_pressure;BME280_temperature;BME280_humidity;BME280_pressure;Samples;Min_cycle;Max_cycle;Signal;HPM_P1;HPM_P2
2022/06/28 00:01:52;;;;;;;2.50;2.30;;;;;;;25.02;47.30;101184.00;5053254;28;20044;-66
2022/06/28 00:04:18;;;;;;;2.60;2.40;;;;;;;25.02;47.34;101180.44;5053511;28;20096;-66
2022/06/28 00:06:44;;;;;;;2.50;2.30;;;;;;;25.01;47.42;101181.50;5053500;28;20029;-65
2022/06/28 00:09:11;;;;;;;2.70;2.20;;;;;;;24.99;47.72;101172.75;5053439;28;20021;-66
2022/06/28 00:11:37;;;;;;;2.30;2.10;;;;;;;24.99;47.75;101181.81;5053060;28;20025;-66
2022/06/28 00:14:02;;;;;;;2.20;2.00;;;;;;;25.02;47.75;101185.91;5053402;28;20029;-67
2022/06/28 00:16:28;;;;;;;2.20;2.10;;;;;;;24.98;47.84;101185.63;5053326;28;20073;-66
2022/06/28 00:18:53;;;;;;;2.55;2.10;;;;;;;24.99;47.84;101190.00;5053391;28;20028;-66
2022/06/28 00:21:18;;;;;;;2.78;2.20;;;;;;;24.98;47.61;101182.06;5052929;28;20056;-66
2022/06/28 00:23:44;;;;;;;2.47;2.28;;;;;;;24.98;47.59;101191.09;5052989;28;20028;-66
2022/06/28 00:26:10;;;;;;;2.60;2.40;;;;;;;25.00;47.58;101193.56;5052902;28;20021;-66
2022/06/28 00:28:36;;;;;;;2.60;2.40;;;;;;;24.99;47.49;101200.09;5052898;28;20032;-66
2022/06/28 00:31:02;;;;;;;2.50;2.30;;;;;;;24.98;47.49;101185.63;5053358;28;20522;-65
2022/06/28 00:33:31;;;;;;;2.50;2.30;;;;;;;24.99;47.53;101191.91;5071680;28;20467;-65
2022/06/28 00:35:56;;;;;;;2.88;2.55;;;;;;;24.99;47.76;101194.63;5072904;28;20081;-65
2022/06/28 00:38:22;;;;;;;2.58;2.38;;;;;;;24.97;47.54;101189.44;5072861;28;20025;-65
2022/06/28 00:40:49;;;;;;;2.40;2.20;;;;;;;24.98;47.58;101191.09;5072873;28;20040;-65
2022/06/28 00:43:15;;;;;;;2.30;2.20;;;;;;;24.98;47.60;101195.75;5071960;28;20028;-65
2022/06/28 00:45:44;;;;;;;2.60;2.40;;;;;;;24.98;47.23;101195.75;5072830;28;20025;-65
2022/06/28 00:48:14;;;;;;;2.80;2.60;;;;;;;24.98;47.69;101193.81;5073049;28;20029;-65
2022/06/28 00:50:39;;;;;;;2.58;2.38;;;;;;;25.00;47.46;101191.63;5071785;28;20040;-65
2022/06/28 00:53:07;;;;;;;2.78;2.58;;;;;;;24.98;47.64;101187.53;5073054;28;20021;-65
2022/06/28 00:55:33;;;;;;;2.65;2.45;;;;;;;24.97;47.54;101192.16;5073119;28;20021;-65
2022/06/28 00:57:59;;;;;;;2.30;2.10;;;;;;;24.99;47.82;101187.28;5072655;28;20024;-65
2022/06/28 01:00:24;;;;;;;2.63;2.42;;;;;;;24.99;47.66;101192.75;5072984;28;20024;-65
2022/06/28 01:02:49;;;;;;;2.80;2.60;;;;;;;24.98;47.71;101182.88;5072686;28;20028;-65
2022/06/28 01:05:15;;;;;;;2.70;2.50;;;;;;;24.98;47.56;101195.75;5072981;28;20137;-65
2022/06/28 01:07:40;;;;;;;2.55;2.35;;;;;;;24.96;47.78;101186.97;5072893;28;20086;-66
2022/06/28 01:10:07;;;;;;;2.72;2.53;;;;;;;24.97;47.87;101191.34;5072495;28;20074;-66
2022/06/28 01:12:32;;;;;;;2.58;2.38;;;;;;;24.98;47.79;101191.09;5072699;28;20033;-66
2022/06/28 01:14:57;;;;;;;2.65;2.45;;;;;;;24.98;47.95;101188.34;5072763;28;20035;-66
2022/06/28 01:17:23;;;;;;;2.55;2.35;;;;;;;24.97;47.78;101183.16;5072537;28;20033;-66
2022/06/28 01:19:48;;;;;;;3.00;2.80;;;;;;;24.97;47.64;101181.22;5072523;28;20029;-66
2022/06/28 01:22:14;;;;;;;3.00;2.80;;;;;;;24.97;47.89;101185.88;5071500;28;20029;-65
2022/06/28 01:24:39;;;;;;;2.50;2.30;;;;;;;24.97;47.59;101183.97;5070947;28;20052;-65
2022/06/28 01:27:05;;;;;;;2.45;2.33;;;;;;;25.00;47.75;101188.09;5072416;28;20024;-65
2022/06/28 01:29:31;;;;;;;2.58;2.38;;;;;;;25.00;47.75;101183.44;5071423;28;20040;-65
2022/06/28 01:31:56;;;;;;;2.70;2.50;;;;;;;25.01;47.49;101186.97;5046297;28;20022;-65
2022/06/28 01:34:22;;;;;;;2.65;2.45;;;;;;;25.00;47.69;101190.81;5032726;28;20045;-65
2022/06/28 01:36:47;;;;;;;2.70;2.50;;;;;;;24.97;47.60;101188.63;5031509;28;20026;-65
2022/06/28 01:39:13;;;;;;;2.78;2.55;;;;;;;24.99;47.73;101191.91;5031676;28;20029;-65
2022/06/28 01:41:38;;;;;;;2.90;2.70;;;;;;;24.96;48.08;101186.97;5034785;28;20334;-65
2022/06/28 01:44:08;;;;;;;2.22;2.13;;;;;;;24.96;47.75;101193.28;5034946;28;20026;-67
2022/06/28 01:46:37;;;;;;;2.80;2.60;;;;;;;24.95;47.59;101190.78;5036032;28;20105;-66
2022/06/28 01:49:03;;;;;;;2.85;2.65;;;;;;;24.93;47.90;101191.88;5035936;28;20033;-66
2022/06/28 01:51:29;;;;;;;2.75;2.55;;;;;;;24.93;47.89;101194.59;5035682;28;20066;-66
2022/06/28 01:53:57;;;;;;;3.08;2.88;;;;;;;24.94;47.79;101195.44;5036368;28;20035;-66
2022/06/28 01:56:23;;;;;;;2.63;2.42;;;;;;;24.93;47.68;101194.59;5036071;28;20030;-66
2022/06/28 01:58:49;;;;;;;2.80;2.60;;;;;;;24.93;47.60;101193.78;5036287;28;20111;-66
2022/06/28 02:01:14;;;;;;;2.97;2.78;;;;;;;24.92;47.70;101192.97;5035926;28;20409;-67
2022/06/28 02:03:42;;;;;;;2.80;2.60;;;;;;;24.94;47.88;101195.44;5035596;28;20407;-67
2022/06/28 02:06:08;;;;;;;2.75;2.55;;;;;;;24.92;48.05;101195.72;5035897;28;20071;-66
2022/06/28 02:08:35;;;;;;;2.70;2.50;;;;;;;24.92;47.84;101195.72;5035768;28;20029;-66
2022/06/28 02:11:01;;;;;;;3.00;2.80;;;;;;;24.94;47.95;101198.19;5035602;28;20021;-66
2022/06/28 02:13:26;;;;;;;3.17;2.88;;;;;;;24.95;47.86;101204.47;5035698;28;20376;-66
2022/06/28 02:15:52;;;;;;;4.30;3.10;;;;;;;24.92;47.69;101198.44;5035371;28;20456;-66
2022/06/28 02:18:17;;;;;;;2.70;2.50;;;;;;;24.93;47.87;101196.53;5035607;28;20035;-66
2022/06/28 02:20:43;;;;;;;2.83;2.63;;;;;;;24.97;47.43;101205.03;5035587;28;20033;-66
2022/06/28 02:23:08;;;;;;;2.80;2.60;;;;;;;24.97;47.68;101194.09;5036000;28;20183;-66
2022/06/28 02:25:34;;;;;;;2.50;2.40;;;;;;;24.99;47.51;101203.69;5035224;28;20439;-66
2022/06/28 02:27:59;;;;;;;3.22;3.03;;;;;;;24.96;47.84;101201.47;5035107;28;20025;-67
2022/06/28 02:30:25;;;;;;;3.15;2.95;;;;;;;24.94;48.06;101200.91;5035571;28;20038;-65
2022/06/28 02:32:50;;;;;;;3.13;2.92;;;;;;;24.97;47.70;101202.28;5058170;28;20017;-65
2022/06/28 02:40:43;;;;;;;2.97;2.78;;;;;;;24.96;47.71;101192.41;5075136;28;20544;-65
2022/06/28 02:43:13;;;;;;;2.78;2.58;;;;;;;24.98;47.63;101195.75;5075013;28;20036;-65
2022/06/28 02:45:39;;;;;;;3.03;2.83;;;;;;;24.97;48.11;101197.63;5074736;28;20386;-65
2022/06/28 02:48:05;;;;;;;3.00;2.80;;;;;;;24.96;48.03;101204.22;5075006;28;20095;-65
2022/06/28 02:50:31;;;;;;;3.25;3.05;;;;;;;24.97;48.08;101205.03;5074858;28;20403;-67
2022/06/28 02:52:57;;;;;;;3.00;2.80;;;;;;;24.96;48.12;101198.72;5074523;28;20051;-67
2022/06/28 02:55:22;;;;;;;3.15;2.95;;;;;;;24.97;48.07;101203.09;5074919;28;20081;-67
2022/06/28 02:57:51;;;;;;;2.92;2.72;;;;;;;24.97;48.02;101205.03;5074554;28;20467;-66
2022/06/28 03:00:17;;;;;;;3.22;3.03;;;;;;;24.96;48.15;101197.91;5074853;28;20021;-66
2022/06/28 03:02:43;;;;;;;3.30;3.10;;;;;;;24.97;47.99;101194.91;5074708;28;20047;-65
2022/06/28 03:05:10;;;;;;;2.85;2.65;;;;;;;24.97;48.23;101200.38;5074721;28;20029;-66
2022/06/28 03:07:36;;;;;;;3.38;3.17;;;;;;;24.96;48.19;101198.72;5075208;28;20032;-66
2022/06/28 03:10:02;;;;;;;3.25;3.05;;;;;;;24.97;48.36;101205.03;5074713;28;20036;-65
2022/06/28 03:12:28;;;;;;;3.03;2.83;;;;;;;24.97;48.21;101205.03;5074345;28;20096;-66
2022/06/28 03:14:53;;;;;;;3.38;3.17;;;;;;;24.97;48.41;101199.56;5073682;28;20024;-66
2022/06/28 03:17:19;;;;;;;3.28;3.08;;;;;;;24.96;48.07;101204.22;5075451;28;20031;-66
2022/06/28 03:19:44;;;;;;;3.33;3.13;;;;;;;24.97;48.48;101205.84;5076016;28;20034;-65
2022/06/28 03:22:09;;;;;;;3.70;3.40;;;;;;;24.97;48.49;101208.56;5076195;28;20032;-65
2022/06/28 03:24:35;;;;;;;3.58;3.33;;;;;;;24.95;48.73;101212.66;5076052;28;20463;-65
2022/06/28 03:27:00;;;;;;;3.67;3.38;;;;;;;24.97;48.48;101205.03;5076630;28;20020;-65
2022/06/28 03:29:26;;;;;;;3.67;3.38;;;;;;;24.97;48.37;101202.28;5076473;28;20052;-65
2022/06/28 03:31:51;;;;;;;3.80;3.60;;;;;;;24.97;48.50;101200.38;5072502;28;20028;-65
2022/06/28 03:34:17;;;;;;;3.70;3.40;;;;;;;24.96;48.23;101192.41;5056080;28;20448;-65
2022/06/28 03:36:42;;;;;;;3.65;3.38;;;;;;;24.95;48.50;101197.06;5055382;28;20021;-65
2022/06/28 03:39:08;;;;;;;3.22;3.03;;;;;;;24.98;48.25;101196.56;5055682;28;20360;-65
2022/06/28 03:41:34;;;;;;;3.40;3.10;;;;;;;24.97;48.55;101199.56;5055591;28;20029;-65
2022/06/28 03:43:59;;;;;;;3.97;3.67;;;;;;;24.96;48.68;101198.72;5055086;28;20104;-65
2022/06/28 03:46:25;;;;;;;3.65;3.38;;;;;;;24.97;48.61;101196.81;5055749;28;20036;-65
2022/06/28 03:48:51;;;;;;;4.20;3.80;;;;;;;24.97;48.54;101191.34;5055180;28;20447;-65
2022/06/28 03:51:16;;;;;;;4.10;3.80;;;;;;;24.99;48.31;101197.38;5054090;28;20100;-65
2022/06/28 03:53:42;;;;;;;3.65;3.40;;;;;;;24.98;48.34;101190.28;5053993;28;20079;-65
2022/06/28 03:56:07;;;;;;;3.80;3.50;;;;;;;24.99;48.36;101186.44;5053701;28;20032;-65
2022/06/28 03:58:35;;;;;;;3.97;3.67;;;;;;;24.97;48.73;101194.91;5052268;28;20384;-65
2022/06/28 04:01:00;;;;;;;3.85;3.55;;;;;;;24.98;48.48;101190.28;5053697;28;20042;-65
2022/06/28 04:03:26;;;;;;;3.60;3.40;;;;;;;24.97;48.37;101194.09;5052703;28;20375;-65
2022/06/28 04:05:51;;;;;;;4.00;3.70;;;;;;;24.97;48.66;101183.97;5053249;28;20029;-65
2022/06/28 04:08:17;;;;;;;3.67;3.38;;;;;;;24.94;48.43;101181.78;5053426;28;20025;-65
2022/06/28 04:10:42;;;;;;;3.70;3.40;;;;;;;24.96;48.75;101173.28;5053383;28;20025;-66
2022/06/28 04:13:08;;;;;;;4.43;4.13;;;;;;;24.94;48.89;101168.09;5053021;28;20098;-66
2022/06/28 04:15:35;;;;;;;3.95;3.65;;;;;;;24.98;48.83;101165.66;5053440;28;20025;-66
2022/06/28 04:18:01;;;;;;;4.03;3.72;;;;;;;24.96;48.69;101165.09;5053587;28;20036;-66
2022/06/28 04:20:26;;;;;;;4.10;3.80;;;;;;;24.93;48.77;101156.31;5051855;28;20025;-66
2022/06/28 04:22:51;;;;;;;4.38;3.97;;;;;;;24.97;48.57;101162.09;5053286;28;20036;-66
2022/06/28 04:25:17;;;;;;;3.90;3.60;;;;;;;25.00;48.51;101160.75;5052834;28;20483;-66
2022/06/28 04:27:42;;;;;;;4.25;3.85;;;;;;;25.02;48.11;101164.03;5052973;28;20360;-66
2022/06/28 04:30:08;;;;;;;4.25;3.95;;;;;;;25.02;48.29;101158.56;5053533;28;20414;-66
2022/06/28 04:32:34;;;;;;;4.20;3.80;;;;;;;25.02;47.67;101162.13;5059494;28;20031;-66
2022/06/28 04:34:59;;;;;;;4.05;3.75;;;;;;;25.04;48.02;101167.31;5072899;28;20032;-66
2022/06/28 04:37:25;;;;;;;4.22;3.92;;;;;;;25.02;47.67;101159.38;5072839;28;20017;-66
2022/06/28 04:39:50;;;;;;;4.05;3.75;;;;;;;25.03;47.70;101160.22;5072899;28;20086;-66
2022/06/28 04:42:17;;;;;;;3.90;3.60;;;;;;;25.03;47.84;101158.31;5072831;28;20386;-66
2022/06/28 04:44:43;;;;;;;4.30;3.92;;;;;;;25.01;47.79;101163.22;5073113;28;20025;-66
2022/06/28 04:47:09;;;;;;;4.20;3.90;;;;;;;25.03;48.03;101171.97;5072757;28;20035;-66
2022/06/28 04:49:34;;;;;;;4.22;3.92;;;;;;;25.00;49.03;101172.50;5071572;28;20032;-66
2022/06/28 04:52:00;;;;;;;3.92;3.63;;;;;;;25.00;48.41;101180.69;5072842;28;20165;-65
2022/06/28 04:54:25;;;;;;;4.68;4.28;;;;;;;25.01;48.60;101179.63;5072977;28;20024;-66
2022/06/28 04:56:52;;;;;;;4.63;4.20;;;;;;;25.00;48.42;101168.94;5072837;28;20027;-66
2022/06/28 04:59:17;;;;;;;3.95;3.65;;;;;;;24.97;48.71;101178.50;5073130;28;20029;-66
2022/06/28 05:01:43;;;;;;;4.35;4.00;;;;;;;25.00;49.02;101183.44;5072712;28;20040;-67
2022/06/28 05:04:08;;;;;;;4.18;3.78;;;;;;;25.05;48.57;101177.19;5072531;28;20020;-66
2022/06/28 05:06:34;;;;;;;4.18;3.88;;;;;;;25.04;49.05;101179.09;5072781;28;20031;-66
2022/06/28 05:08:59;;;;;;;4.07;3.78;;;;;;;25.02;49.19;101178.53;5072457;28;20020;-65
2022/06/28 05:11:25;;;;;;;3.97;3.67;;;;;;;25.05;48.56;101179.91;5072660;28;20029;-65
2022/06/28 05:13:50;;;;;;;4.20;3.90;;;;;;;25.00;48.55;101177.16;5072706;28;20474;-65
2022/06/28 05:16:16;;;;;;;4.50;4.10;;;;;;;25.06;48.92;101192.47;5076318;28;20021;-65
2022/06/28 05:18:41;;;;;;;4.45;4.05;;;;;;;25.04;48.49;101184.56;5076353;28;20021;-65
2022/06/28 05:21:06;;;;;;;4.68;4.10;;;;;;;25.07;48.74;101178.53;5076370;28;20459;-65
2022/06/28 05:23:32;;;;;;;4.25;3.95;;;;;;;25.08;48.86;101179.38;5075992;28;20411;-67
2022/06/28 05:25:58;;;;;;;3.88;3.58;;;;;;;25.08;49.37;101180.19;5075635;28;20048;-66
2022/06/28 05:28:23;;;;;;;4.20;3.85;;;;;;;25.05;48.60;101180.72;5076527;28;20038;-66
2022/06/28 05:30:49;;;;;;;4.20;3.90;;;;;;;25.01;49.29;101179.63;5076223;28;20481;-66
2022/06/28 05:33:14;;;;;;;4.25;3.95;;;;;;;25.05;48.89;101174.44;5064670;28;20036;-66
2022/06/28 05:35:40;;;;;;;4.20;3.90;;;;;;;25.05;49.49;101171.72;5055956;28;20021;-65
2022/06/28 05:38:06;;;;;;;4.25;3.92;;;;;;;25.02;49.02;101174.97;5055777;28;20047;-66
2022/06/28 05:40:31;;;;;;;4.53;4.20;;;;;;;25.07;48.99;101172.25;5055918;28;20032;-65
2022/06/28 05:42:56;;;;;;;3.83;3.53;;;;;;;25.10;49.20;101180.75;5055722;28;20040;-65
2022/06/28 05:45:22;;;;;;;4.15;3.85;;;;;;;25.08;49.45;101177.47;5055786;28;20025;-66
2022/06/28 05:47:47;;;;;;;4.28;3.97;;;;;;;25.11;49.11;101181.56;5055438;28;20021;-65
2022/06/28 05:50:13;;;;;;;4.43;4.03;;;;;;;25.10;49.44;101188.16;5055589;28;20024;-66
2022/06/28 05:52:38;;;;;;;4.25;3.95;;;;;;;25.09;49.29;101192.81;5055555;28;20044;-65
2022/06/28 05:55:04;;;;;;;4.18;3.88;;;;;;;25.09;49.73;101189.22;5054974;28;20082;-68
2022/06/28 05:57:29;;;;;;;5.35;4.25;;;;;;;25.09;49.52;101190.06;5055451;28;20075;-66
2022/06/28 05:59:55;;;;;;;4.70;4.30;;;;;;;25.14;49.33;101182.97;5055388;28;20107;-66
2022/06/28 06:02:20;;;;;;;4.20;3.88;;;;;;;25.12;49.00;101186.78;5055009;28;20029;-67
2022/06/28 06:04:46;;;;;;;4.80;4.40;;;;;;;25.11;49.44;101189.78;5055021;28;20032;-66
2022/06/28 06:07:11;;;;;;;4.00;3.70;;;;;;;25.06;49.49;101181.53;5055021;28;20032;-66
2022/06/28 06:09:37;;;;;;;4.88;4.47;;;;;;;25.09;49.86;101181.88;5054852;28;20036;-66
2022/06/28 06:12:06;;;;;;;4.40;4.07;;;;;;;25.12;49.21;101185.97;5054755;28;20116;-66
2022/06/28 06:14:31;;;;;;;4.60;4.20;;;;;;;25.13;49.55;101187.63;5055017;28;20509;-67
2022/06/28 06:16:57;;;;;;;4.70;4.30;;;;;;;25.11;49.33;101189.78;5055346;28;20029;-66
2022/06/28 06:19:22;;;;;;;4.40;4.10;;;;;;;25.02;49.70;101185.91;5055307;28;20048;-66
2022/06/28 06:21:48;;;;;;;4.57;4.22;;;;;;;24.98;50.12;101180.16;5054938;28;20491;-65
2022/06/28 06:24:13;;;;;;;5.20;4.72;;;;;;;25.06;49.72;101181.53;5054511;28;20479;-66
2022/06/28 06:26:39;;;;;;;4.88;4.38;;;;;;;25.06;50.13;101187.00;5054167;28;20017;-66
2022/06/28 06:29:04;;;;;;;5.40;4.65;;;;;;;25.01;50.11;101185.09;5054475;28;20029;-66
2022/06/28 06:31:30;;;;;;;4.78;4.38;;;;;;;25.03;50.23;101187.56;5054086;28;20331;-66
2022/06/28 06:33:55;;;;;;;5.38;4.88;;;;;;;24.98;50.28;101182.88;5069270;28;20055;-67
2022/06/28 06:36:21;;;;;;;4.80;4.40;;;;;;;25.02;50.34;101184.00;5074812;28;20474;-66
2022/06/28 06:38:48;;;;;;;4.93;4.50;;;;;;;25.07;50.40;101189.47;5074725;28;20029;-67
2022/06/28 06:41:13;;;;;;;5.47;4.97;;;;;;;25.12;50.11;101180.50;5074724;28;20103;-66
2022/06/28 06:43:38;;;;;;;5.25;4.43;;;;;;;25.07;50.02;101184.00;5074607;28;20020;-67
2022/06/28 06:46:04;;;;;;;5.05;4.65;;;;;;;25.06;50.56;101184.28;5074464;28;20025;-66
2022/06/28 06:48:29;;;;;;;5.00;4.40;;;;;;;25.09;50.24;101189.22;5074213;28;20025;-67
2022/06/28 06:50:55;;;;;;;4.80;4.40;;;;;;;25.04;50.91;101186.47;5074504;28;20040;-66
2022/06/28 06:53:20;;;;;;;4.70;4.32;;;;;;;25.04;50.76;101200.97;5074116;28;20430;-66
2022/06/28 06:55:49;;;;;;;4.85;4.45;;;;;;;25.10;50.77;101199.91;5074242;28;20095;-66
2022/06/28 06:58:15;;;;;;;5.15;4.75;;;;;;;25.02;50.81;101196.84;5074007;28;20476;-68
2022/06/28 07:00:41;;;;;;;5.07;4.68;;;;;;;25.05;50.76;101199.06;5073833;28;20028;-67
2022/06/28 07:03:06;;;;;;;5.82;4.97;;;;;;;25.05;50.78;101205.34;5073787;28;20028;-66
2022/06/28 07:05:32;;;;;;;5.07;4.57;;;;;;;25.06;50.87;101208.88;5074187;28;20032;-66
2022/06/28 07:07:58;;;;;;;4.60;4.28;;;;;;;25.09;50.47;101206.47;5073875;28;20047;-66
2022/06/28 07:10:23;;;;;;;4.15;3.85;;;;;;;25.06;50.62;101214.34;5074329;28;20108;-67
2022/06/28 07:12:49;;;;;;;4.53;4.13;;;;;;;25.08;50.61;101204.00;5074027;28;20031;-67
2022/06/28 07:15:14;;;;;;;5.60;5.10;;;;;;;25.09;50.77;101208.38;5074044;28;20055;-67
2022/06/28 07:17:40;;;;;;;4.88;4.47;;;;;;;25.15;50.67;101218.25;5074236;28;20409;-68
2022/06/28 07:20:06;;;;;;;4.63;4.22;;;;;;;25.16;50.79;101208.94;5073405;28;20397;-66
2022/06/28 07:22:32;;;;;;;4.97;4.47;;;;;;;25.16;50.62;101208.94;5073739;28;20029;-66
2022/06/28 07:24:59;;;;;;;4.88;4.47;;;;;;;25.13;50.85;101220.44;5073319;28;20040;-66
2022/06/28 07:27:25;;;;;;;4.70;4.30;;;;;;;25.10;50.77;101218.22;5073433;28;20071;-68
2022/06/28 07:29:51;;;;;;;4.47;4.15;;;;;;;25.10;50.95;101212.75;5072236;28;20104;-67
2022/06/28 07:32:16;;;;;;;4.22;3.92;;;;;;;25.15;50.46;101210.06;5073174;28;20348;-66
2022/06/28 07:34:41;;;;;;;4.50;4.10;;;;;;;25.14;50.90;101219.34;5053505;28;20022;-66
2022/06/28 07:37:08;;;;;;;4.65;4.25;;;;;;;25.08;50.89;101206.75;5052251;28;20045;-66
2022/06/28 07:39:33;;;;;;;4.43;4.03;;;;;;;25.10;50.59;101213.56;5053099;28;20384;-66
2022/06/28 07:41:59;;;;;;;7.57;6.88;;;;;;;25.12;50.71;101218.78;5053697;28;20033;-67
2022/06/28 07:44:24;;;;;;;8.32;7.57;;;;;;;25.12;50.88;101224.25;5053322;28;20025;-67
2022/06/28 07:46:50;;;;;;;6.65;6.05;;;;;;;25.16;50.60;101224.53;5053156;28;20070;-67
2022/06/28 07:49:15;;;;;;;5.40;5.00;;;;;;;25.16;50.59;101224.53;5051820;28;20102;-66
2022/06/28 07:54:25;;;;;;;6.13;5.63;;;;;;;25.20;50.40;101215.56;5053215;28;20052;-66
2022/06/28 07:56:51;;;;;;;5.03;4.63;;;;;;;25.17;50.35;101221.53;5053146;28;20021;-66
2022/06/28 07:59:16;;;;;;;5.50;5.00;;;;;;;25.18;50.19;101217.72;5053157;28;20455;-67
2022/06/28 08:01:42;;;;;;;5.50;5.00;;;;;;;25.20;50.10;101215.56;5053361;28;20033;-66
2022/06/28 08:04:08;;;;;;;5.25;4.85;;;;;;;25.18;50.39;101216.88;5052954;28;20083;-66
2022/06/28 08:06:33;;;;;;;4.35;3.95;;;;;;;25.22;50.24;101223.50;5053088;28;20032;-66
2022/06/28 08:08:59;;;;;;;4.90;4.50;;;;;;;25.18;50.49;101217.72;5053005;28;20029;-66
2022/06/28 08:11:24;;;;;;;4.57;4.10;;;;;;;25.21;50.31;101217.19;5053363;28;20517;-67
2022/06/28 08:13:52;;;;;;;4.45;4.03;;;;;;;25.18;50.36;101225.09;5053213;28;20021;-66
2022/06/28 08:16:17;;;;;;;4.25;3.85;;;;;;;25.15;50.40;101211.94;5053149;28;20025;-67
2022/06/28 08:18:43;;;;;;;4.13;3.83;;;;;;;25.21;50.12;101222.66;5052919;28;20423;-66
2022/06/28 08:21:09;;;;;;;3.80;3.50;;;;;;;25.19;50.08;101221.28;5052941;28;20021;-66
2022/06/28 08:23:34;;;;;;;4.60;4.20;;;;;;;25.20;50.21;101215.56;5052829;28;20113;-67
2022/06/28 08:26:00;;;;;;;3.83;3.53;;;;;;;25.25;50.05;101210.13;5052128;28;20041;-65
2022/06/28 08:28:26;;;;;;;3.65;3.35;;;;;;;25.24;49.77;101221.31;5053822;28;20037;-67
2022/06/28 08:30:51;;;;;;;3.92;3.63;;;;;;;25.25;49.95;101221.06;5053735;28;20380;-67
2022/06/28 08:33:17;;;;;;;3.92;3.38;;;;;;;25.23;49.84;101225.97;5060172;28;20407;-67
2022/06/28 08:35:42;;;;;;;3.67;3.38;;;;;;;25.23;49.83;101216.91;5072310;28;20020;-67
2022/06/28 08:38:08;;;;;;;3.55;3.25;;;;;;;25.24;50.03;101224.03;5073265;28;20024;-66
2022/06/28 08:40:33;;;;;;;3.53;3.22;;;;;;;25.22;49.70;101229.78;5072828;28;20021;-65
2022/06/28 08:42:59;;;;;;;3.13;2.92;;;;;;;25.24;49.71;101222.13;5073066;28;20386;-65
2022/06/28 08:45:25;;;;;;;3.30;3.10;;;;;;;25.22;49.68;101227.03;5071456;28;20024;-65
2022/06/28 08:47:52;;;;;;;3.30;3.10;;;;;;;25.22;49.76;101227.03;5070795;28;20027;-65
2022/06/28 08:50:30;;;;;;;3.90;3.60;;;;;;;25.23;50.08;101225.13;5075165;28;20039;-66
2022/06/28 08:52:56;;;;;;;3.50;3.25;;;;;;;25.25;49.91;101217.47;5076604;28;20039;-66
2022/06/28 08:55:21;;;;;;;3.67;3.38;;;;;;;25.26;49.63;101225.44;5075373;28;20033;-66
2022/06/28 08:57:47;;;;;;;3.47;3.20;;;;;;;25.25;49.59;101222.94;5075400;28;20459;-66
2022/06/28 09:00:13;;;;;;;3.80;3.50;;;;;;;25.24;49.96;101222.13;5076524;28;20455;-66
2022/06/28 09:02:38;;;;;;;3.80;3.50;;;;;;;25.27;49.51;101221.63;5076422;28;20025;-65
2022/06/28 09:05:04;;;;;;;3.80;3.50;;;;;;;25.22;50.04;101218.03;5076597;28;20025;-65
2022/06/28 09:07:30;;;;;;;4.00;3.70;;;;;;;25.22;49.64;101220.75;5076923;28;20404;-66
2022/06/28 09:09:55;;;;;;;4.00;3.70;;;;;;;25.24;49.95;101208.44;5076408;28;20348;-65
2022/06/28 09:12:21;;;;;;;3.50;3.20;;;;;;;25.24;49.77;101211.19;5075959;28;20028;-67
2022/06/28 09:14:48;;;;;;;4.13;3.72;;;;;;;25.23;49.76;101215.03;5076241;28;20398;-67
2022/06/28 09:17:32;;;;;;;3.92;3.38;;;;;;;25.28;49.82;101209.63;5076296;28;20091;-68
2022/06/28 09:20:05;;;;;;;;;;;;;;;25.36;49.84;101202.78;5075320;28;20024;-65
2022/06/28 09:22:41;;;;;;;3.70;3.30;;;;;;;25.36;49.56;101199.25;5076275;28;19912;-67
2022/06/28 09:25:29;;;;;;;3.45;3.17;;;;;;;25.35;49.78;101200.31;5075697;28;20040;-67
2022/06/28 09:27:56;;;;;;;3.47;3.17;;;;;;;25.29;50.04;101199.47;5075509;28;20024;-67
2022/06/28 09:30:22;;;;;;;3.42;3.22;;;;;;;25.30;49.80;101204.69;5075654;28;20104;-67
2022/06/28 09:32:47;;;;;;;3.90;3.60;;;;;;;25.29;50.08;101203.03;5075514;28;20356;-67
2022/06/28 09:35:13;;;;;;;3.97;3.67;;;;;;;25.32;49.85;101196.22;5055427;28;20036;-66
2022/06/28 09:37:50;;;;;;;3.90;3.60;;;;;;;25.29;50.12;101197.56;5055542;28;20021;-66
2022/06/28 09:40:24;;;;;;;3.30;3.08;;;;;;;25.34;49.86;101195.97;5055536;28;20024;-66
2022/06/28 09:43:05;;;;;;;;;;;;;;;25.40;49.79;101192.13;5055776;28;20029;-65
2022/06/28 09:45:30;;;;;;;4.15;3.40;;;;;;;25.36;50.03;101191.03;5055243;28;19949;-66
2022/06/28 09:47:56;;;;;;;3.65;3.35;;;;;;;25.33;49.92;101186.09;5055714;28;20090;-66
2022/06/28 09:50:23;;;;;;;3.90;3.60;;;;;;;25.33;49.96;101197.03;5056416;28;20485;-66
2022/06/28 09:52:48;;;;;;;4.50;4.10;;;;;;;25.37;50.09;101189.94;5055587;28;20394;-66
2022/06/28 09:55:15;;;;;;;4.45;4.05;;;;;;;25.33;50.25;101181.44;5055329;28;20083;-66
2022/06/28 09:57:45;;;;;;;4.20;3.80;;;;;;;25.34;50.23;101185.00;5055730;28;20025;-68
2022/06/28 10:00:12;;;;;;;4.00;3.70;;;;;;;25.34;50.31;101182.28;5054599;28;20025;-67
2022/06/28 10:02:39;;;;;;;5.65;3.90;;;;;;;25.36;50.42;101180.09;5055503;28;20037;-67
2022/06/28 10:05:08;;;;;;;4.68;4.28;;;;;;;25.37;50.36;101177.09;5054208;28;20024;-67
2022/06/28 10:07:34;;;;;;;4.90;4.43;;;;;;;25.40;50.55;101170.25;5053773;28;20075;-66
2022/06/28 10:10:00;;;;;;;4.47;3.90;;;;;;;25.37;50.46;101174.34;5053634;28;20131;-67
2022/06/28 10:15:11;;;;;;;4.13;3.80;;;;;;;25.39;50.57;101169.44;5053730;28;20036;-66
2022/06/28 10:17:42;;;;;;;4.00;3.65;;;;;;;25.44;50.44;101155.78;5055223;28;20032;-66
2022/06/28 10:20:09;;;;;;;3.90;3.60;;;;;;;25.48;50.27;101161.53;5055004;28;20159;-66
2022/06/28 10:22:35;;;;;;;4.30;4.00;;;;;;;25.44;50.36;101153.03;5055400;28;20053;-66
2022/06/28 10:25:01;;;;;;;4.28;3.92;;;;;;;25.43;50.31;101156.84;5054840;28;20071;-67
2022/06/28 10:27:28;;;;;;;4.88;4.13;;;;;;;25.45;50.39;101162.88;5055071;28;20079;-67
2022/06/28 10:30:00;;;;;;;4.60;4.20;;;;;;;25.43;50.41;101169.72;5055041;28;20368;-66
2022/06/28 10:32:38;;;;;;;5.18;4.38;;;;;;;25.47;50.55;101170.81;5054744;28;20040;-66
2022/06/28 10:35:04;;;;;;;5.85;4.43;;;;;;;25.45;50.36;101167.53;5072108;28;20024;-65
2022/06/28 10:37:29;;;;;;;4.40;4.00;;;;;;;25.46;50.45;101169.19;5073652;28;20448;-65
2022/06/28 10:40:26;;;;;;;4.80;4.30;;;;;;;25.50;50.34;101170.28;5074577;28;20474;-65
2022/06/28 10:42:53;;;;;;;4.65;4.25;;;;;;;25.46;50.26;101169.19;5074605;28;20421;-65
2022/06/28 10:45:23;;;;;;;4.10;3.70;;;;;;;25.49;50.37;101161.25;5073137;28;20485;-65
2022/06/28 10:48:07;;;;;;;3.83;3.53;;;;;;;25.49;50.37;101161.25;5073234;28;20028;-66
2022/06/28 10:50:50;;;;;;;4.35;4.00;;;;;;;25.49;50.13;101160.41;5074275;28;20025;-67
2022/06/28 10:53:16;;;;;;;4.78;4.35;;;;;;;25.48;50.36;101167.00;5058901;28;20401;-66
2022/06/28 10:55:41;;;;;;;4.25;3.85;;;;;;;25.50;50.08;101170.28;5074190;28;20036;-66
2022/06/28 10:58:07;;;;;;;4.20;3.90;;;;;;;25.49;50.20;101164.00;5056127;28;20471;-66
2022/06/28 11:00:35;;;;;;;4.20;3.90;;;;;;;25.53;50.21;101163.47;5073929;28;20024;-67
2022/06/28 11:03:02;;;;;;;4.28;3.90;;;;;;;25.54;49.90;101159.63;5074195;28;20055;-66
2022/06/28 11:05:47;;;;;;;4.20;3.80;;;;;;;25.54;50.25;101154.16;5074187;28;20032;-66
2022/06/28 11:08:34;;;;;;;4.38;4.00;;;;;;;25.54;50.02;101152.22;5073900;28;20078;-67
2022/06/28 11:11:03;;;;;;;4.25;3.85;;;;;;;25.54;49.82;101154.97;5072743;28;20081;-66
2022/06/28 11:13:28;;;;;;;3.63;3.33;;;;;;;25.60;49.55;101164.03;5073587;28;20463;-67
2022/06/28 11:15:54;;;;;;;4.53;4.13;;;;;;;25.56;49.94;101157.44;5072662;28;20071;-66
2022/06/28 11:18:25;;;;;;;3.90;3.60;;;;;;;25.53;49.82;101156.06;5072355;28;20118;-66
2022/06/28 11:20:52;;;;;;;3.97;3.58;;;;;;;25.53;49.78;101158.81;5073827;28;20034;-66
2022/06/28 11:23:25;;;;;;;4.20;3.80;;;;;;;25.56;49.64;101158.28;5074043;28;20032;-66
2022/06/28 11:28:53;;;;;;;4.03;3.72;;;;;;;25.60;49.72;101148.41;5073867;28;20035;-66
2022/06/28 11:31:19;;;;;;;4.45;4.10;;;;;;;25.57;49.50;101151.69;5073916;28;20048;-66
2022/06/28 11:33:45;;;;;;;3.97;3.67;;;;;;;25.53;49.75;101150.59;5067510;28;20051;-67
2022/06/28 11:36:20;;;;;;;4.10;3.72;;;;;;;25.58;49.58;101147.88;5053562;28;20311;-67
2022/06/28 11:38:46;;;;;;;4.10;3.80;;;;;;;25.56;49.32;101144.59;5053206;28;20033;-67